KHDO

South Texas Regional at Hondo Airport

Hondo, Texas, USA
METAR KHDO 212251Z AUTO 12009KT 10SM FEW044 33/22 A2988 RMK AO2 SLP101 T03280217 PWINO $
Observed Flight Rules
Jun-21 @ 22:51 UTC (60 minutes ago) Visual Flight Rules
Wind Visibility Clouds
120° at 9 knots 10 miles
  • Few at 4,400' AGL
Temperatures Readings
Current 33°C / 91°F
Dewpoint 22°C / 72°F
Humidity 52%
Altimeter 29.88" Hg
Pressure 1010.1 hPa
Elevation 282
METAR KHDO 212251Z AUTO 12009KT 10SM FEW044 33/22 A2988 RMK AO2 SLP101 T03280217 PWINO $
Observed Flight Rules
Jun-21 @ 22:51 UTC
(60 minutes ago)
VFR
Wind Visibility
120° at 9 knots 10 miles
Clouds
  • Few at 4,400' AGL
Temperature Dewpoint
33°C / 91°F 22°C / 72°F
Humidity Altimeter Pressure
52% 29.88" Hg 1010.1 hPa